ADDS METAR Data INFO
IDs: Format: Raw Decoded Include TAF

Data at: 1257 UTC 14 Dec 2017

KWVI 141253Z AUTO 00000KT 10SM CLR 04/01 A3004 RMK AO2 SLP173 T00390006

KSNS 141253Z AUTO 08007KT 10SM CLR 03/M03 A3004 RMK AO2 SLP181 T00331033

KMRY 141254Z AUTO 08004KT 10SM CLR 08/M01 A3002 RMK AO2 SLP179 T00781011 TSNO

KSJC 141253Z AUTO 00000KT 10SM CLR 05/02 A3006 RMK AO2 SLP178 T00500017

KSFO 141156Z 26003KT 10SM FEW200 07/04 A3005 RMK AO2 SLP176 T00670039 10111 20067 58006

KHAF 141255Z AUTO 32005KT 3SM BR SCT002 09/07 A3001 RMK AO2